createdAt,value
2017-08-05T00:02:17.495Z,91.00
2017-08-05T00:04:45.039Z,91.20
2017-08-05T00:07:12.554Z,91.60
2017-08-05T00:09:40.095Z,91.60
2017-08-05T00:12:07.610Z,92.00
2017-08-05T00:14:35.145Z,91.60
2017-08-05T00:17:02.663Z,92.00
2017-08-05T00:19:30.971Z,91.10
2017-08-05T00:21:59.259Z,91.40
2017-08-05T00:24:27.539Z,91.60
2017-08-05T00:26:55.071Z,91.60
2017-08-05T00:29:23.351Z,92.00
2017-08-05T00:31:50.889Z,91.60
2017-08-05T00:34:18.410Z,91.30
2017-08-05T00:36:45.955Z,90.70
2017-08-05T00:39:13.470Z,90.80
2017-08-05T00:41:41.003Z,90.60
2017-08-05T00:44:08.517Z,91.10
2017-08-05T00:46:36.065Z,92.80
2017-08-05T00:49:03.587Z,93.20
2017-08-05T00:51:31.131Z,93.00
2017-08-05T00:53:58.650Z,92.10
2017-08-05T00:56:26.177Z,91.30
2017-08-05T00:58:53.711Z,91.40
2017-08-05T01:01:21.998Z,91.60
2017-08-05T01:03:50.302Z,91.90
2017-08-05T01:06:17.843Z,91.80
2017-08-05T01:08:45.382Z,92.20
2017-08-05T01:11:12.902Z,92.30
2017-08-05T01:13:40.443Z,92.50
2017-08-05T01:16:07.961Z,92.70
2017-08-05T01:18:36.259Z,93.00
2017-08-05T01:21:03.773Z,93.00
2017-08-05T01:23:31.316Z,93.00
2017-08-05T01:25:59.595Z,93.20
2017-08-05T01:28:27.875Z,93.30
2017-08-05T01:30:56.179Z,91.40
2017-08-05T01:33:23.707Z,91.40
2017-08-05T01:35:51.237Z,91.70
2017-08-05T01:38:19.530Z,91.30
2017-08-05T01:40:47.075Z,91.30
2017-08-05T01:43:14.586Z,92.30
2017-08-05T01:45:42.130Z,91.30
2017-08-05T01:48:09.643Z,91.30
2017-08-05T01:50:37.179Z,92.20
2017-08-05T01:53:04.707Z,92.60
2017-08-05T01:55:32.249Z,93.00
2017-08-05T01:57:59.766Z,93.30
2017-08-05T02:00:28.055Z,93.30
2017-08-05T02:02:55.597Z,93.30
2017-08-05T02:05:23.878Z,92.60
2017-08-05T02:07:51.414Z,92.60
2017-08-05T02:10:18.927Z,92.60
2017-08-05T02:12:47.230Z,93.00
2017-08-05T02:15:14.750Z,93.00
2017-08-05T02:17:42.286Z,92.70
2017-08-05T02:20:09.802Z,92.60
2017-08-05T02:22:37.338Z,91.70
2017-08-05T02:25:05.624Z,92.00
2017-08-05T02:27:33.924Z,92.40
2017-08-05T02:30:01.440Z,92.40
2017-08-05T02:32:28.963Z,92.50
2017-08-05T02:34:56.498Z,92.00
2017-08-05T02:37:24.013Z,91.90
2017-08-05T02:39:51.553Z,92.00
2017-08-05T02:42:19.065Z,92.60
2017-08-05T02:44:46.602Z,93.10
2017-08-05T02:47:14.118Z,93.70
2017-08-05T02:49:41.659Z,93.60
2017-08-05T02:52:09.179Z,93.30
2017-08-05T02:54:37.534Z,92.60
2017-08-05T02:57:05.055Z,92.50
2017-08-05T02:59:32.575Z,92.70
2017-08-05T03:02:00.883Z,92.60
2017-08-05T03:04:28.394Z,92.50
2017-08-05T03:06:55.934Z,92.60
2017-08-05T03:09:23.455Z,92.60
2017-08-05T03:11:51.755Z,92.50
2017-08-05T03:14:19.281Z,92.50
2017-08-05T03:16:46.814Z,92.80
2017-08-05T03:19:14.326Z,93.00
2017-08-05T03:21:41.866Z,93.20
2017-08-05T03:24:10.151Z,93.80
2017-08-05T03:26:38.455Z,94.00
2017-08-05T03:29:05.973Z,94.00
2017-08-05T03:31:33.519Z,94.20
2017-08-05T03:34:01.041Z,94.40
2017-08-05T03:36:28.555Z,94.70
2017-08-05T03:38:56.859Z,94.60
2017-08-05T03:41:24.382Z,94.50
2017-08-05T03:43:52.686Z,93.40
2017-08-05T03:46:20.264Z,93.40
2017-08-05T03:48:47.796Z,93.50
2017-08-05T03:51:15.315Z,94.00
2017-08-05T03:53:42.852Z,94.40
2017-08-05T03:56:10.367Z,94.60
2017-08-05T03:58:37.909Z,94.60
2017-08-05T04:01:05.431Z,94.70
2017-08-05T04:03:32.945Z,94.60
2017-08-05T04:06:00.487Z,94.40
2017-08-05T04:08:28.011Z,94.40
2017-08-05T04:10:55.550Z,94.30
2017-08-05T04:13:23.075Z,94.20
2017-08-05T04:15:51.380Z,94.00
2017-08-05T04:18:18.903Z,94.00
2017-08-05T04:20:46.434Z,94.10
2017-08-05T04:23:13.950Z,94.20
2017-08-05T04:25:41.503Z,94.20
2017-08-05T04:28:09.014Z,94.10
2017-08-05T04:30:36.526Z,94.00
2017-08-05T04:33:04.062Z,94.10
2017-08-05T04:35:31.577Z,94.10
2017-08-05T04:37:59.880Z,93.50
2017-08-05T04:40:27.403Z,93.50
2017-08-05T04:42:54.939Z,93.30
2017-08-05T04:45:22.535Z,93.00
2017-08-05T04:47:50.071Z,93.20
2017-08-05T04:50:18.354Z,93.50
2017-08-05T04:52:46.650Z,93.30
2017-08-05T04:55:14.166Z,93.20
2017-08-05T04:57:41.721Z,92.70
2017-08-05T05:00:09.233Z,92.20
2017-08-05T05:02:36.751Z,91.80
2017-08-05T05:05:04.282Z,90.60
2017-08-05T05:07:31.799Z,90.00
2017-08-05T05:09:59.342Z,89.80
2017-08-05T05:12:26.860Z,86.10
2017-08-05T05:14:54.414Z,81.20
2017-08-05T05:17:21.935Z,74.80
2017-08-05T05:19:49.470Z,67.90
2017-08-05T05:22:16.990Z,65.40
2017-08-05T05:24:44.526Z,67.10
2017-08-05T05:27:12.049Z,71.10
2017-08-05T05:29:39.589Z,75.20
2017-08-05T05:32:07.874Z,81.40
2017-08-05T05:34:36.153Z,83.30
2017-08-05T05:37:04.454Z,82.40
2017-08-05T05:39:31.972Z,82.40
2017-08-05T05:41:59.511Z,82.20
2017-08-05T05:44:27.035Z,79.50
2017-08-05T05:46:54.571Z,71.40
2017-08-05T05:49:22.860Z,62.20
2017-08-05T05:51:50.397Z,62.20
2017-08-05T05:54:17.919Z,59.20
2017-08-05T05:56:45.450Z,58.50
2017-08-05T05:59:12.962Z,56.10
2017-08-05T06:01:40.511Z,55.00
2017-08-05T06:04:08.802Z,53.60
2017-08-05T06:06:36.319Z,53.60
2017-08-05T06:09:03.857Z,53.20
2017-08-05T06:11:31.379Z,53.20
2017-08-05T06:13:58.914Z,52.10
2017-08-05T06:16:26.431Z,51.80
2017-08-05T06:18:53.974Z,50.90
2017-08-05T06:21:21.500Z,51.50
2017-08-05T06:23:49.814Z,51.20
2017-08-05T06:26:17.335Z,51.10
2017-08-05T06:28:45.672Z,48.80
2017-08-05T06:31:15.090Z,48.50
2017-08-05T06:33:43.853Z,48.30
2017-08-05T06:36:11.698Z,48.20
2017-08-05T06:38:39.309Z,47.80
2017-08-05T06:41:06.948Z,48.50
2017-08-05T06:43:34.488Z,46.30
2017-08-05T06:46:02.079Z,45.90
2017-08-05T06:48:29.615Z,46.40
2017-08-05T06:50:58.010Z,45.90
2017-08-05T06:53:25.534Z,45.80
2017-08-05T06:55:53.092Z,45.90
2017-08-05T06:58:20.611Z,48.00
2017-08-05T07:00:48.127Z,50.10
2017-08-05T07:03:15.679Z,50.60
2017-08-05T07:05:43.195Z,49.30
2017-08-05T07:08:11.501Z,49.50
2017-08-05T07:10:39.028Z,48.90
2017-08-05T07:13:06.625Z,49.00
2017-08-05T07:15:34.153Z,48.70
2017-08-05T07:18:02.459Z,48.60
2017-08-05T07:20:29.975Z,48.60
2017-08-05T07:22:57.664Z,47.50
2017-08-05T07:25:26.014Z,48.30
2017-08-05T07:27:53.530Z,48.80
2017-08-05T07:30:21.081Z,48.50
2017-08-05T07:32:49.026Z,48.10
2017-08-05T07:35:16.616Z,48.10
2017-08-05T07:37:44.126Z,48.20
2017-08-05T07:40:32.507Z,48.80
2017-08-05T07:43:02.258Z,49.40
2017-08-05T07:45:29.800Z,46.80
2017-08-05T07:47:58.095Z,47.50
2017-08-05T07:50:25.643Z,47.50
2017-08-05T07:52:53.940Z,48.40
2017-08-05T07:55:24.661Z,48.30
2017-08-05T07:57:52.610Z,48.10
2017-08-05T08:00:20.135Z,47.80
2017-08-05T08:02:47.684Z,48.50
2017-08-05T08:05:15.198Z,49.10
2017-08-05T08:07:42.734Z,50.10
2017-08-05T08:10:10.255Z,51.20
2017-08-05T08:12:37.801Z,48.80
2017-08-05T08:15:05.328Z,49.10
2017-08-05T08:17:32.862Z,50.70
2017-08-05T08:20:00.377Z,50.00
2017-08-05T08:22:27.930Z,50.90
2017-08-05T08:24:55.452Z,52.40
2017-08-05T08:27:22.967Z,53.70
2017-08-05T08:29:50.512Z,54.40
2017-08-05T08:32:18.032Z,56.30
2017-08-05T08:34:45.586Z,57.90
2017-08-05T08:37:13.104Z,58.50
2017-08-05T08:39:40.651Z,59.30
2017-08-05T08:42:08.186Z,57.30
2017-08-05T08:44:36.498Z,58.50
2017-08-05T08:47:04.018Z,58.50
2017-08-05T08:49:31.554Z,58.50
2017-08-05T08:51:59.072Z,58.40
2017-08-05T08:54:26.629Z,59.80
2017-08-05T08:56:54.146Z,59.20
2017-08-05T08:59:21.679Z,60.10
2017-08-05T09:01:49.214Z,59.30
2017-08-05T09:04:16.735Z,59.20
2017-08-05T09:06:44.270Z,57.50
2017-08-05T09:09:11.794Z,57.80
2017-08-05T09:11:39.331Z,58.00
2017-08-05T09:14:06.845Z,57.30
2017-08-05T09:16:34.381Z,57.50
2017-08-05T09:19:01.898Z,58.70
2017-08-05T09:21:30.290Z,58.20
2017-08-05T09:23:57.812Z,57.40
2017-08-05T09:26:26.131Z,58.20
2017-08-05T09:28:53.659Z,57.60
2017-08-05T09:31:21.937Z,53.80
2017-08-05T09:33:50.250Z,53.20
2017-08-05T09:36:17.771Z,53.10
2017-08-05T09:38:46.076Z,50.50
2017-08-05T09:41:13.676Z,50.50
2017-08-05T09:43:41.325Z,48.00
2017-08-05T09:46:08.842Z,48.90
2017-08-05T09:48:36.382Z,49.30
2017-08-05T09:51:04.665Z,51.90
2017-08-05T09:53:32.966Z,52.00
2017-08-05T09:56:00.488Z,52.00
2017-08-05T09:58:28.033Z,54.10
2017-08-05T10:00:55.554Z,54.60
2017-08-05T10:03:23.081Z,53.50
2017-08-05T10:05:51.387Z,54.50
2017-08-05T10:08:18.909Z,54.60
2017-08-05T10:10:46.448Z,53.80
2017-08-05T10:13:13.967Z,52.80
2017-08-05T10:15:41.510Z,53.20
2017-08-05T10:18:09.029Z,52.50
2017-08-05T10:20:36.561Z,49.30
2017-08-05T10:23:04.078Z,51.40
2017-08-05T10:25:31.619Z,50.70
2017-08-05T10:27:59.136Z,50.20
2017-08-05T10:30:26.670Z,50.60
2017-08-05T10:32:54.193Z,49.60
2017-08-05T10:35:21.742Z,50.30
2017-08-05T10:37:49.266Z,50.80
2017-08-05T10:40:17.551Z,53.00
2017-08-05T10:42:45.096Z,52.90
2017-08-05T10:45:13.397Z,52.30
2017-08-05T10:47:40.942Z,52.20
2017-08-05T10:50:09.225Z,49.60
2017-08-05T10:52:36.772Z,49.70
2017-08-05T10:55:04.297Z,51.40
2017-08-05T10:57:31.838Z,51.60
2017-08-05T11:00:00.119Z,52.50
2017-08-05T11:02:28.422Z,54.30
2017-08-05T11:04:55.943Z,54.20
2017-08-05T11:07:23.482Z,53.00
2017-08-05T11:09:51.008Z,53.30
2017-08-05T11:12:18.544Z,54.80
2017-08-05T11:14:46.827Z,55.30
2017-08-05T11:17:16.002Z,56.10
2017-08-05T11:19:43.520Z,56.10
2017-08-05T11:22:11.038Z,57.40
2017-08-05T11:24:39.342Z,59.40
2017-08-05T11:27:06.861Z,59.20
2017-08-05T11:29:34.402Z,61.90
2017-08-05T11:32:01.915Z,62.80
2017-08-05T11:34:29.458Z,62.20
2017-08-05T11:36:57.738Z,63.30
2017-08-05T11:39:26.038Z,63.50
2017-08-05T11:41:53.554Z,63.50
2017-08-05T11:44:21.088Z,63.60
2017-08-05T11:46:48.606Z,64.40
2017-08-05T11:49:16.148Z,65.20
2017-08-05T11:51:43.674Z,66.40
2017-08-05T11:54:11.211Z,66.80
2017-08-05T11:56:38.731Z,65.00
2017-08-05T11:59:06.269Z,64.10
2017-08-05T12:01:33.798Z,63.70
2017-08-05T12:04:02.083Z,62.40
2017-08-05T12:06:30.388Z,62.80
2017-08-05T12:08:57.909Z,62.70
2017-08-05T12:11:25.449Z,62.50
2017-08-05T12:13:52.979Z,60.60
2017-08-05T12:16:20.519Z,58.30
2017-08-05T12:18:48.037Z,57.10
2017-08-05T12:21:15.588Z,56.10
2017-08-05T12:23:43.873Z,55.10
2017-08-05T12:26:11.409Z,55.00
2017-08-05T12:28:38.936Z,57.30
2017-08-05T12:31:06.475Z,59.50
2017-08-05T12:33:33.991Z,59.80
2017-08-05T12:36:01.538Z,59.80
2017-08-05T12:38:29.823Z,60.80
2017-08-05T12:40:58.102Z,61.70
2017-08-05T12:43:26.409Z,63.30
2017-08-05T12:45:53.927Z,63.30
2017-08-05T12:48:21.475Z,63.60
2017-08-05T12:50:48.991Z,65.20
2017-08-05T12:53:17.300Z,65.60
2017-08-05T12:55:44.825Z,65.60
2017-08-05T12:58:12.366Z,66.90
2017-08-05T13:00:39.891Z,67.90
2017-08-05T13:03:07.431Z,69.80
2017-08-05T13:05:34.955Z,70.10
2017-08-05T13:08:02.471Z,72.10
2017-08-05T13:10:30.022Z,74.70
2017-08-05T13:12:57.538Z,77.40
2017-08-05T13:15:25.074Z,78.40
2017-08-05T13:17:52.591Z,81.30
2017-08-05T13:20:20.130Z,82.30
2017-08-05T13:22:47.647Z,83.30
2017-08-05T13:25:15.187Z,83.20
2017-08-05T13:27:42.703Z,82.50
2017-08-05T13:30:10.247Z,82.30
2017-08-05T13:32:37.770Z,83.00
2017-08-05T13:35:05.317Z,83.20
2017-08-05T13:37:32.843Z,80.70
2017-08-05T13:40:00.363Z,81.80
2017-08-05T13:42:28.666Z,83.30
2017-08-05T13:44:56.194Z,83.20
2017-08-05T13:47:23.739Z,83.70
2017-08-05T13:49:52.023Z,83.00
2017-08-05T13:52:19.582Z,83.00
2017-08-05T13:54:47.102Z,84.00
2017-08-05T13:57:15.097Z,83.80
2017-08-05T13:59:43.382Z,82.50
2017-08-05T14:02:10.930Z,82.40
2017-08-05T14:04:38.451Z,81.80
2017-08-05T14:07:05.972Z,81.80
2017-08-05T14:09:33.509Z,80.70
2017-08-05T14:12:01.032Z,80.50
2017-08-05T14:14:28.570Z,79.70
2017-08-05T14:16:56.098Z,77.10
2017-08-05T14:19:23.634Z,76.70
2017-08-05T14:21:51.150Z,76.80
2017-08-05T14:24:18.691Z,77.20
2017-08-05T14:26:46.230Z,76.40
2017-08-05T14:29:13.783Z,74.40
2017-08-05T14:31:41.303Z,75.40
2017-08-05T14:34:08.827Z,75.30
2017-08-05T14:36:36.365Z,73.10
2017-08-05T14:39:03.882Z,71.60
2017-08-05T14:41:31.419Z,71.80
2017-08-05T14:43:58.940Z,73.90
2017-08-05T14:46:27.244Z,68.60
2017-08-05T14:48:54.761Z,68.60
2017-08-05T14:51:23.065Z,70.50
2017-08-05T14:53:50.577Z,70.40
2017-08-05T14:56:18.109Z,72.20
2017-08-05T14:58:45.626Z,72.50
2017-08-05T15:01:13.174Z,73.20
2017-08-05T15:03:40.694Z,74.80
2017-08-05T15:06:08.216Z,76.10
2017-08-05T15:08:35.762Z,79.80
2017-08-05T15:11:03.282Z,81.20
2017-08-05T15:13:30.871Z,86.60
2017-08-05T15:15:58.394Z,88.60
2017-08-05T15:18:25.939Z,90.80
2017-08-05T15:20:53.473Z,93.50
2017-08-05T15:23:21.027Z,92.40
2017-08-05T15:25:48.547Z,93.40
2017-08-05T15:28:16.078Z,93.90
2017-08-05T15:30:44.380Z,93.60
2017-08-05T15:33:11.894Z,93.60
2017-08-05T15:35:39.438Z,94.20
2017-08-05T15:38:06.965Z,92.10
2017-08-05T15:40:34.501Z,93.20
2017-08-05T15:43:02.024Z,91.70
2017-08-05T15:45:29.566Z,91.10
2017-08-05T15:47:57.085Z,90.30
2017-08-05T15:50:24.622Z,90.40
2017-08-05T15:52:52.907Z,89.80
2017-08-05T15:55:20.425Z,89.00
2017-08-05T15:57:47.966Z,87.10
2017-08-05T16:00:15.492Z,86.50
2017-08-05T16:02:43.033Z,88.70
2017-08-05T16:05:10.552Z,88.60
2017-08-05T16:07:38.092Z,87.50
2017-08-05T16:10:05.615Z,86.30
2017-08-05T16:12:33.149Z,88.90
2017-08-05T16:15:01.436Z,89.40
2017-08-05T16:17:28.975Z,89.30
2017-08-05T16:19:57.267Z,89.80
2017-08-05T16:22:24.815Z,89.80
2017-08-05T16:24:52.335Z,89.00
2017-08-05T16:27:19.855Z,87.50
2017-08-05T16:29:48.159Z,89.30
2017-08-05T16:32:15.682Z,89.20
2017-08-05T16:34:43.229Z,89.00
2017-08-05T16:37:10.754Z,89.30
2017-08-05T16:39:38.291Z,89.60
2017-08-05T16:42:05.810Z,90.00
2017-08-05T16:44:33.346Z,86.80
2017-08-05T16:47:00.858Z,87.70
2017-08-05T16:49:29.163Z,88.10
2017-08-05T16:51:56.678Z,88.10
2017-08-05T16:54:24.222Z,86.50
2017-08-05T16:56:52.627Z,87.20
2017-08-05T16:59:20.146Z,87.40
2017-08-05T17:01:47.706Z,89.20
2017-08-05T17:04:15.253Z,89.20
2017-08-05T17:06:42.795Z,88.40
2017-08-05T17:09:10.335Z,88.40
2017-08-05T17:11:37.875Z,88.40
2017-08-05T17:14:05.398Z,89.90
2017-08-05T17:16:32.939Z,90.70
2017-08-05T17:19:00.457Z,91.00
2017-08-05T17:21:27.994Z,90.50
2017-08-05T17:23:55.509Z,90.10
2017-08-05T17:26:23.051Z,89.00
2017-08-05T17:28:51.356Z,88.50
2017-08-05T17:31:18.876Z,87.60
2017-08-05T17:33:46.409Z,86.60
2017-08-05T17:36:14.693Z,87.60
2017-08-05T17:38:43.004Z,88.00
2017-08-05T17:41:10.532Z,87.80
2017-08-05T17:43:38.078Z,88.30
2017-08-05T17:46:06.393Z,89.60
2017-08-05T17:48:33.930Z,89.00
2017-08-05T17:51:02.219Z,89.50
2017-08-05T17:53:29.784Z,89.50
2017-08-05T17:55:57.310Z,89.90
2017-08-05T17:58:24.835Z,90.10
2017-08-05T18:00:52.376Z,90.20
2017-08-05T18:03:19.893Z,89.10
2017-08-05T18:05:47.432Z,89.00
2017-08-05T18:08:14.958Z,87.60
2017-08-05T18:10:42.503Z,87.30
2017-08-05T18:13:10.024Z,87.60
2017-08-05T18:15:37.573Z,86.70
2017-08-05T18:18:05.091Z,87.00
2017-08-05T18:20:32.634Z,87.00
2017-08-05T18:23:00.151Z,87.10
2017-08-05T18:25:27.698Z,87.40
2017-08-05T18:27:55.226Z,87.50
2017-08-05T18:30:23.537Z,87.80
2017-08-05T18:32:51.061Z,87.70
2017-08-05T18:35:18.575Z,88.00
2017-08-05T18:37:46.113Z,87.90
2017-08-05T18:40:13.636Z,88.10
2017-08-05T18:42:41.185Z,88.10
2017-08-05T18:45:08.707Z,88.30
2017-08-05T18:47:36.247Z,88.10
2017-08-05T18:50:04.539Z,88.50
2017-08-05T18:52:32.842Z,87.70
2017-08-05T18:55:00.362Z,87.20
2017-08-05T18:57:27.902Z,83.70
2017-08-05T18:59:56.206Z,83.60
2017-08-05T19:02:23.763Z,83.60
2017-08-05T19:04:51.288Z,82.40
2017-08-05T19:07:18.806Z,82.60
2017-08-05T19:09:46.339Z,82.20
2017-08-05T19:12:13.864Z,83.30
2017-08-05T19:14:41.402Z,84.40
2017-08-05T19:17:09.686Z,85.20
2017-08-05T19:19:37.260Z,85.10
2017-08-05T19:22:04.795Z,86.90
2017-08-05T19:24:33.112Z,86.30
2017-08-05T19:27:00.639Z,86.30
2017-08-05T19:29:28.942Z,83.70
2017-08-05T19:31:56.463Z,83.70
2017-08-05T19:34:24.000Z,82.60
2017-08-05T19:36:51.526Z,80.10
2017-08-05T19:39:19.846Z,79.40
2017-08-05T19:41:47.367Z,79.30
2017-08-05T19:44:14.886Z,79.60
2017-08-05T19:46:42.423Z,80.60
2017-08-05T19:49:09.956Z,80.30
2017-08-05T19:51:38.263Z,80.50
2017-08-05T19:54:05.790Z,80.40
2017-08-05T19:56:34.099Z,80.40
2017-08-05T19:59:01.623Z,80.30
2017-08-05T20:01:29.172Z,80.50
2017-08-05T20:03:56.688Z,80.40
2017-08-05T20:06:24.231Z,80.60
2017-08-05T20:08:52.519Z,81.10
2017-08-05T20:11:20.035Z,81.10
2017-08-05T20:13:47.583Z,81.10
2017-08-05T20:16:15.102Z,81.30
2017-08-05T20:18:42.643Z,81.70
2017-08-05T20:21:10.921Z,82.70
2017-08-05T20:23:39.219Z,83.20
2017-08-05T20:26:06.740Z,83.10
2017-08-05T20:28:35.048Z,84.30
2017-08-05T20:31:02.572Z,83.90
2017-08-05T20:33:30.106Z,84.70
2017-08-05T20:35:57.619Z,85.10
2017-08-05T20:38:25.159Z,85.30
2017-08-05T20:40:52.674Z,86.00
2017-08-05T20:43:20.955Z,87.70
2017-08-05T20:45:49.255Z,88.00
2017-08-05T20:48:16.782Z,88.00
2017-08-05T20:50:45.083Z,88.60
2017-08-05T20:53:12.605Z,88.40
2017-08-05T20:55:40.142Z,89.60
2017-08-05T20:58:07.667Z,90.20
2017-08-05T21:00:35.210Z,90.00
2017-08-05T21:03:03.492Z,90.80
2017-08-05T21:05:31.795Z,91.00
2017-08-05T21:07:59.313Z,90.90
2017-08-05T21:10:26.845Z,90.80
2017-08-05T21:12:54.367Z,90.70
2017-08-05T21:15:21.916Z,90.90
2017-08-05T21:17:49.969Z,91.40
2017-08-05T21:20:18.283Z,91.90
2017-08-05T21:22:46.113Z,91.90
2017-08-05T21:25:13.651Z,91.30
2017-08-05T21:27:41.170Z,91.50
2017-08-05T21:30:09.449Z,92.20
2017-08-05T21:32:37.779Z,92.00
2017-08-05T21:35:05.297Z,92.00
2017-08-05T21:37:32.834Z,92.50
2017-08-05T21:40:01.118Z,91.70
2017-08-05T21:42:29.427Z,91.70
2017-08-05T21:44:56.948Z,91.70
2017-08-05T21:47:24.484Z,91.30
2017-08-05T21:49:52.014Z,91.60
2017-08-05T21:52:19.555Z,91.80
2017-08-05T21:54:47.077Z,92.50
2017-08-05T21:57:15.424Z,92.80
2017-08-05T21:59:42.951Z,93.10
2017-08-05T22:02:10.494Z,92.70
2017-08-05T22:04:38.015Z,92.30
2017-08-05T22:07:05.556Z,91.60
2017-08-05T22:09:33.865Z,91.00
2017-08-05T22:12:01.386Z,91.00
2017-08-05T22:14:28.923Z,91.30
2017-08-05T22:16:56.439Z,91.80
2017-08-05T22:19:23.975Z,91.80
2017-08-05T22:21:52.270Z,91.90
2017-08-05T22:24:19.806Z,91.60
2017-08-05T22:26:47.332Z,92.00
2017-08-05T22:29:14.867Z,92.00
2017-08-05T22:31:43.159Z,92.60
2017-08-05T22:34:10.698Z,92.60
2017-08-05T22:36:38.213Z,92.50
2017-08-05T22:39:05.755Z,93.00
2017-08-05T22:41:33.270Z,92.90
2017-08-05T22:44:00.810Z,92.70
2017-08-05T22:46:28.326Z,92.20
2017-08-05T22:48:56.607Z,91.30
2017-08-05T22:51:24.146Z,91.20
2017-08-05T22:53:51.666Z,91.90
2017-08-05T22:56:19.202Z,93.00
2017-08-05T22:58:46.718Z,92.70
2017-08-05T23:01:14.258Z,92.70
2017-08-05T23:03:41.770Z,92.10
2017-08-05T23:06:09.310Z,92.00
2017-08-05T23:08:37.597Z,91.90
2017-08-05T23:11:05.138Z,91.90
2017-08-05T23:13:33.434Z,93.10
2017-08-05T23:16:00.966Z,93.10
2017-08-05T23:18:28.486Z,93.50
2017-08-05T23:20:56.026Z,93.40
2017-08-05T23:23:23.552Z,93.50
2017-08-05T23:25:51.833Z,91.70
2017-08-05T23:28:20.144Z,91.20
2017-08-05T23:30:47.667Z,91.20
2017-08-05T23:33:15.975Z,92.60
2017-08-05T23:35:43.492Z,92.60
2017-08-05T23:38:11.030Z,92.90
2017-08-05T23:40:38.546Z,93.10
2017-08-05T23:43:06.083Z,93.00
2017-08-05T23:45:33.599Z,93.10
2017-08-05T23:48:01.139Z,92.50
2017-08-05T23:50:28.663Z,92.20
2017-08-05T23:52:56.194Z,92.30
2017-08-05T23:55:23.709Z,92.00
2017-08-05T23:57:51.245Z,92.00
